createdAt,value
2022-10-19T00:01:36.834Z,13.63
2022-10-19T00:04:39.175Z,13.64
2022-10-19T00:07:41.545Z,13.71
2022-10-19T00:10:43.817Z,13.75
2022-10-19T00:13:46.206Z,13.68
2022-10-19T00:16:50.424Z,13.71
2022-10-19T00:19:52.683Z,13.60
2022-10-19T00:22:54.989Z,13.64
2022-10-19T00:25:57.846Z,13.49
2022-10-19T00:29:00.250Z,13.60
2022-10-19T00:32:02.547Z,13.61
2022-10-19T00:35:05.220Z,13.54
2022-10-19T00:38:07.478Z,13.66
2022-10-19T00:41:09.758Z,13.64
2022-10-19T00:44:11.912Z,13.64
2022-10-19T00:47:14.610Z,13.56
2022-10-19T00:50:17.472Z,13.48
2022-10-19T00:53:20.242Z,13.45
2022-10-19T00:56:23.051Z,13.34
2022-10-19T00:59:27.164Z,13.32
2022-10-19T01:02:29.484Z,13.24
2022-10-19T01:05:33.023Z,13.30
2022-10-19T01:08:35.321Z,13.26
2022-10-19T01:11:46.687Z,13.27
2022-10-19T01:15:29.152Z,13.28
2022-10-19T01:18:52.520Z,13.24
2022-10-19T01:22:32.539Z,13.22
2022-10-19T01:25:54.687Z,13.23
2022-10-19T01:28:56.900Z,13.24
2022-10-19T01:32:08.418Z,13.22
2022-10-19T01:35:26.184Z,13.24
2022-10-19T01:38:36.281Z,13.18
2022-10-19T01:41:49.768Z,13.25
2022-10-19T01:44:53.183Z,13.17
2022-10-19T01:48:00.090Z,13.33
2022-10-19T01:51:05.697Z,13.29
2022-10-19T01:54:12.037Z,13.32
2022-10-19T01:57:18.927Z,13.29
2022-10-19T02:00:22.659Z,13.35
2022-10-19T02:03:26.097Z,13.31
2022-10-19T02:06:28.390Z,13.33
2022-10-19T02:09:30.773Z,13.37
2022-10-19T02:12:33.954Z,13.35
2022-10-19T02:15:38.872Z,13.25
2022-10-19T02:18:46.061Z,13.30
2022-10-19T02:21:48.909Z,13.23
2022-10-19T02:24:51.177Z,13.28
2022-10-19T02:27:53.517Z,13.34
2022-10-19T02:30:56.530Z,13.27
2022-10-19T02:33:58.793Z,13.13
2022-10-19T02:37:01.110Z,13.26
2022-10-19T02:40:04.939Z,13.32
2022-10-19T02:43:11.719Z,13.26
2022-10-19T02:46:19.926Z,13.31
2022-10-19T02:49:22.596Z,13.28
2022-10-19T02:52:24.880Z,13.30
2022-10-19T02:55:28.608Z,13.22
2022-10-19T02:58:30.862Z,13.20
2022-10-19T03:01:33.152Z,13.27
2022-10-19T03:04:35.537Z,13.32
2022-10-19T03:07:37.984Z,13.40
2022-10-19T03:10:40.271Z,13.53
2022-10-19T03:13:43.508Z,13.47
2022-10-19T03:16:45.822Z,13.75
2022-10-19T03:19:48.055Z,13.87
2022-10-19T03:22:50.743Z,14.04
2022-10-19T03:25:53.070Z,14.13
2022-10-19T03:28:55.345Z,14.24
2022-10-19T03:31:57.613Z,14.43
2022-10-19T03:34:59.862Z,14.55
2022-10-19T03:38:02.143Z,14.66
2022-10-19T03:41:07.333Z,14.77
2022-10-19T03:44:10.770Z,14.83
2022-10-19T03:47:13.076Z,14.88
2022-10-19T03:50:17.075Z,14.89
2022-10-19T03:53:19.383Z,14.96
2022-10-19T03:56:24.041Z,14.95
2022-10-19T03:59:26.472Z,14.93
2022-10-19T04:02:29.316Z,14.79
2022-10-19T04:05:31.598Z,14.66
2022-10-19T04:08:34.368Z,14.56
2022-10-19T04:11:36.977Z,14.49
2022-10-19T04:14:56.383Z,14.65
2022-10-19T04:17:59.825Z,14.60
2022-10-19T04:21:04.157Z,14.34
2022-10-19T04:24:12.423Z,14.13
2022-10-19T04:27:14.650Z,14.23
2022-10-19T04:30:16.958Z,14.26
2022-10-19T04:33:19.272Z,14.48
2022-10-19T04:36:21.949Z,14.49
2022-10-19T04:39:24.254Z,14.46
2022-10-19T04:42:26.509Z,14.62
2022-10-19T04:45:28.806Z,14.56
2022-10-19T04:48:31.081Z,14.31
2022-10-19T04:51:33.652Z,14.29
2022-10-19T04:54:36.130Z,14.34
2022-10-19T04:57:38.386Z,14.27
2022-10-19T05:00:40.682Z,14.17
2022-10-19T05:03:43.421Z,14.08
2022-10-19T05:06:45.807Z,13.90
2022-10-19T05:09:48.032Z,13.89
2022-10-19T05:12:50.358Z,13.90
2022-10-19T05:15:57.252Z,13.79
2022-10-19T05:18:59.837Z,13.65
2022-10-19T05:22:02.130Z,13.58
2022-10-19T05:25:05.369Z,13.69
2022-10-19T05:28:07.661Z,13.67
2022-10-19T05:31:12.887Z,13.83
2022-10-19T05:34:15.125Z,13.94
2022-10-19T05:37:17.461Z,13.97
2022-10-19T05:40:19.792Z,14.00
2022-10-19T05:43:22.100Z,14.30
2022-10-19T05:46:25.515Z,14.34
2022-10-19T05:49:27.854Z,14.34
2022-10-19T05:52:30.145Z,14.57
2022-10-19T05:55:35.551Z,14.30
2022-10-19T05:58:37.884Z,14.40
2022-10-19T06:01:40.232Z,14.40
2022-10-19T06:04:42.602Z,14.51
2022-10-19T06:07:44.884Z,14.48
2022-10-19T06:10:47.451Z,14.57
2022-10-19T06:13:51.020Z,14.77
2022-10-19T06:16:53.408Z,14.84
2022-10-19T06:19:55.712Z,15.04
2022-10-19T06:22:57.990Z,15.06
2022-10-19T06:26:03.248Z,15.13
2022-10-19T06:29:05.723Z,15.11
2022-10-19T06:32:07.990Z,15.14
2022-10-19T06:35:10.265Z,15.01
2022-10-19T06:38:14.032Z,14.94
2022-10-19T06:41:17.098Z,14.98
2022-10-19T06:44:19.561Z,14.75
2022-10-19T06:47:21.901Z,15.00
2022-10-19T06:50:24.230Z,15.30
2022-10-19T06:53:27.131Z,15.64
2022-10-19T06:56:29.485Z,16.14
2022-10-19T06:59:31.779Z,16.34
2022-10-19T07:02:34.553Z,16.83
2022-10-19T07:05:36.836Z,16.81
2022-10-19T07:08:40.705Z,17.27
2022-10-19T07:11:46.107Z,17.77
2022-10-19T07:14:48.656Z,18.19
2022-10-19T07:17:53.204Z,18.52
2022-10-19T07:21:00.064Z,18.79
2022-10-19T07:24:02.336Z,18.93
2022-10-19T07:27:04.604Z,18.90
2022-10-19T07:30:07.469Z,19.05
2022-10-19T07:33:09.803Z,18.89
2022-10-19T07:36:13.755Z,18.97
2022-10-19T07:39:19.828Z,19.21
2022-10-19T07:45:30.120Z,19.21
2022-10-19T07:48:32.789Z,19.35
2022-10-19T07:51:35.156Z,19.45
2022-10-19T07:54:37.384Z,19.83
2022-10-19T07:57:41.589Z,19.96
2022-10-19T08:00:45.989Z,19.94
2022-10-19T08:07:11.106Z,20.22
2022-10-19T08:10:13.375Z,20.30
2022-10-19T08:13:15.649Z,20.30
2022-10-19T08:16:29.041Z,20.57
2022-10-19T08:19:31.283Z,20.74
2022-10-19T08:22:34.066Z,20.80
2022-10-19T08:25:37.423Z,20.76
2022-10-19T08:28:39.969Z,20.68
2022-10-19T08:31:43.229Z,20.77
2022-10-19T08:34:45.460Z,20.76
2022-10-19T08:37:48.022Z,20.95
2022-10-19T08:40:50.673Z,21.06
2022-10-19T08:44:10.129Z,21.29
2022-10-19T08:47:37.683Z,21.69
2022-10-19T08:50:43.234Z,21.55
2022-10-19T08:53:56.460Z,21.73
2022-10-19T08:57:28.024Z,21.91
2022-10-19T09:03:57.124Z,21.99
2022-10-19T09:07:27.378Z,22.27
2022-10-19T09:10:36.073Z,22.40
2022-10-19T09:14:04.234Z,22.68
2022-10-19T09:17:13.308Z,22.83
2022-10-19T09:20:22.056Z,22.48
2022-10-19T09:23:40.479Z,22.71
2022-10-19T09:26:54.429Z,22.98
2022-10-19T09:30:06.261Z,22.91
2022-10-19T09:33:15.412Z,23.09
2022-10-19T09:36:22.645Z,23.41
2022-10-19T09:39:30.891Z,23.20
2022-10-19T09:42:34.545Z,23.58
2022-10-19T09:45:55.152Z,23.77
2022-10-19T09:48:59.673Z,24.08
2022-10-19T09:52:01.969Z,24.12
2022-10-19T09:55:10.441Z,24.33
2022-10-19T09:58:15.672Z,24.47
2022-10-19T10:01:41.864Z,24.51
2022-10-19T10:05:04.350Z,24.28
2022-10-19T10:08:15.117Z,23.96
2022-10-19T10:11:26.981Z,23.94
2022-10-19T10:14:33.103Z,23.61
2022-10-19T10:17:37.080Z,23.90
2022-10-19T10:41:49.429Z,23.27
2022-10-19T10:44:53.236Z,23.26
2022-10-19T10:47:55.618Z,22.87
2022-10-19T10:51:00.261Z,22.53
2022-10-19T10:54:32.796Z,21.92
2022-10-19T10:58:18.544Z,21.90
2022-10-19T11:01:23.589Z,22.52
2022-10-19T11:04:30.069Z,23.05
2022-10-19T11:07:33.896Z,22.67
2022-10-19T11:10:55.750Z,22.66
2022-10-19T11:14:29.408Z,23.01
2022-10-19T11:17:34.539Z,23.09
2022-10-19T11:20:42.950Z,23.14
2022-10-19T11:24:03.770Z,23.29
2022-10-19T11:27:15.108Z,23.49
2022-10-19T11:30:22.475Z,23.57
2022-10-19T11:33:53.960Z,23.75
2022-10-19T11:37:05.651Z,23.64
2022-10-19T11:40:13.517Z,23.25
2022-10-19T11:43:24.908Z,23.03
2022-10-19T11:46:47.480Z,23.00
2022-10-19T11:49:58.605Z,22.84
2022-10-19T11:53:33.420Z,22.79
2022-10-19T11:57:01.860Z,22.79
2022-10-19T12:00:27.305Z,22.98
2022-10-19T12:03:55.897Z,22.78
2022-10-19T12:07:34.970Z,22.73
2022-10-19T12:10:56.712Z,23.09
2022-10-19T12:14:06.557Z,22.86
2022-10-19T12:20:28.786Z,22.69
2022-10-19T12:23:35.982Z,22.58
2022-10-19T12:26:40.389Z,22.82
2022-10-19T12:29:50.353Z,22.57
2022-10-19T12:33:01.995Z,22.52
2022-10-19T12:36:41.574Z,22.38
2022-10-19T12:39:46.871Z,22.29
2022-10-19T12:42:51.691Z,22.24
2022-10-19T12:46:15.288Z,22.17
2022-10-19T12:49:26.663Z,22.13
2022-10-19T12:52:49.079Z,21.95
2022-10-19T12:56:09.682Z,21.96
2022-10-19T12:59:24.177Z,21.76
2022-10-19T13:05:35.501Z,21.49
2022-10-19T13:08:55.816Z,21.27
2022-10-19T13:12:25.822Z,21.34
2022-10-19T13:15:34.372Z,21.32
2022-10-19T13:19:03.165Z,21.20
2022-10-19T13:22:28.548Z,21.16
2022-10-19T13:25:41.147Z,21.09
2022-10-19T13:28:53.623Z,20.99
2022-10-19T13:31:56.039Z,21.06
2022-10-19T13:35:30.815Z,20.84
2022-10-19T13:38:33.786Z,20.86
2022-10-19T13:41:39.050Z,20.82
2022-10-19T13:44:45.606Z,20.66
2022-10-19T13:47:51.928Z,20.63
2022-10-19T13:51:05.238Z,20.47
2022-10-19T13:54:29.325Z,20.41
2022-10-19T13:57:57.027Z,20.32
2022-10-19T14:01:32.787Z,20.14
2022-10-19T14:05:03.273Z,20.27
2022-10-19T14:08:36.517Z,20.36
2022-10-19T14:11:41.301Z,20.41
2022-10-19T14:14:44.647Z,20.42
2022-10-19T14:17:46.983Z,20.39
2022-10-19T14:20:57.181Z,20.31
2022-10-19T14:23:59.866Z,20.18
2022-10-19T14:27:07.032Z,20.12
2022-10-19T14:30:31.534Z,19.84
2022-10-19T14:33:36.685Z,19.76
2022-10-19T14:36:44.324Z,19.61
2022-10-19T14:40:04.426Z,19.47
2022-10-19T14:43:24.712Z,19.44
2022-10-19T14:46:32.439Z,19.28
2022-10-19T14:49:34.697Z,18.96
2022-10-19T14:52:38.627Z,18.98
2022-10-19T14:55:41.269Z,18.85
2022-10-19T14:59:18.783Z,18.84
2022-10-19T15:02:24.762Z,18.81
2022-10-19T15:05:30.027Z,18.81
2022-10-19T15:08:42.672Z,18.90
2022-10-19T15:11:49.960Z,18.71
2022-10-19T15:14:52.299Z,18.41
2022-10-19T15:17:56.542Z,18.42
2022-10-19T15:21:12.490Z,18.15
2022-10-19T15:24:26.463Z,18.11
2022-10-19T15:27:39.754Z,17.88
2022-10-19T15:30:42.005Z,17.75
2022-10-19T15:33:50.036Z,17.73
2022-10-19T15:37:00.917Z,17.69
2022-10-19T15:40:13.828Z,17.64
2022-10-19T15:43:34.483Z,17.66
2022-10-19T15:46:49.170Z,17.54
2022-10-19T15:49:57.238Z,17.34
2022-10-19T15:52:59.588Z,17.23
2022-10-19T15:59:17.996Z,17.14
2022-10-19T16:02:20.252Z,17.18
2022-10-19T16:05:22.821Z,17.06
2022-10-19T16:08:25.632Z,17.10
2022-10-19T16:11:29.043Z,16.97
2022-10-19T16:14:34.354Z,16.90
2022-10-19T16:17:39.331Z,17.10
2022-10-19T16:20:42.769Z,16.96
2022-10-19T16:23:45.342Z,16.98
2022-10-19T16:26:47.578Z,16.96
2022-10-19T16:29:49.783Z,16.97
2022-10-19T16:32:52.015Z,17.08
2022-10-19T16:35:54.271Z,17.05
2022-10-19T16:38:56.558Z,16.99
2022-10-19T16:41:58.931Z,16.89
2022-10-19T16:45:01.271Z,16.96
2022-10-19T16:48:03.562Z,16.98
2022-10-19T16:51:05.797Z,17.02
2022-10-19T16:54:10.596Z,16.95
2022-10-19T16:57:12.932Z,16.73
2022-10-19T17:00:15.280Z,16.72
2022-10-19T17:03:17.494Z,16.64
2022-10-19T17:06:19.892Z,16.67
2022-10-19T17:09:41.884Z,16.59
2022-10-19T17:12:44.466Z,16.74
2022-10-19T17:15:46.727Z,16.73
2022-10-19T17:18:49.470Z,16.60
2022-10-19T17:21:55.338Z,16.78
2022-10-19T17:24:57.650Z,16.71
2022-10-19T17:27:59.924Z,16.82
2022-10-19T17:31:10.711Z,16.75
2022-10-19T17:34:13.203Z,16.72
2022-10-19T17:37:15.478Z,16.70
2022-10-19T17:40:17.950Z,16.57
2022-10-19T17:43:20.206Z,16.46
2022-10-19T17:46:28.287Z,16.29
2022-10-19T17:49:30.574Z,16.34
2022-10-19T17:52:32.860Z,16.37
2022-10-19T17:55:36.985Z,16.37
2022-10-19T17:58:40.022Z,16.30
2022-10-19T18:01:42.858Z,16.26
2022-10-19T18:04:45.230Z,16.09
2022-10-19T18:07:49.283Z,15.97
2022-10-19T18:11:07.078Z,15.81
2022-10-19T18:14:11.301Z,15.58
2022-10-19T18:17:13.578Z,15.87
2022-10-19T18:20:15.869Z,15.95
2022-10-19T18:23:18.954Z,15.81
2022-10-19T18:26:23.362Z,15.77
2022-10-19T18:29:26.572Z,15.70
2022-10-19T18:32:28.819Z,15.72
2022-10-19T18:35:37.933Z,15.78
2022-10-19T18:38:40.326Z,15.77
2022-10-19T18:41:43.059Z,15.70
2022-10-19T18:44:47.238Z,15.56
2022-10-19T18:47:49.521Z,15.26
2022-10-19T18:50:52.014Z,15.29
2022-10-19T18:53:55.014Z,15.24
2022-10-19T18:56:57.753Z,15.33
2022-10-19T19:00:00.220Z,15.13
2022-10-19T19:03:02.549Z,15.14
2022-10-19T19:06:26.664Z,15.27
2022-10-19T19:09:29.014Z,15.16
2022-10-19T19:12:31.369Z,15.25
2022-10-19T19:15:33.775Z,15.14
2022-10-19T19:18:36.150Z,14.94
2022-10-19T19:21:41.178Z,14.97
2022-10-19T19:24:43.535Z,14.80
2022-10-19T19:27:45.940Z,14.75
2022-10-19T19:30:48.590Z,14.71
2022-10-19T19:33:50.875Z,14.75
2022-10-19T19:36:53.206Z,14.68
2022-10-19T19:39:55.467Z,14.77
2022-10-19T19:42:57.675Z,14.75
2022-10-19T19:46:04.667Z,14.71
2022-10-19T19:49:10.398Z,14.60
2022-10-19T19:52:12.782Z,14.52
2022-10-19T19:55:18.134Z,14.40
2022-10-19T19:58:20.512Z,14.37
2022-10-19T20:01:23.214Z,14.22
2022-10-19T20:04:25.474Z,14.21
2022-10-19T20:07:27.734Z,14.20
2022-10-19T20:10:30.052Z,14.02
2022-10-19T20:13:32.488Z,13.98
2022-10-19T20:16:34.869Z,13.85
2022-10-19T20:19:37.163Z,13.81
2022-10-19T20:22:49.907Z,13.73
2022-10-19T20:25:56.732Z,13.57
2022-10-19T20:28:59.223Z,13.61
2022-10-19T20:32:01.868Z,13.55
2022-10-19T20:35:04.390Z,13.55
2022-10-19T20:38:06.725Z,13.51
2022-10-19T20:41:09.784Z,13.50
2022-10-19T20:44:12.015Z,13.46
2022-10-19T20:47:14.362Z,13.34
2022-10-19T20:50:19.301Z,13.41
2022-10-19T20:53:24.069Z,13.31
2022-10-19T20:56:28.542Z,13.24
2022-10-19T20:59:33.048Z,13.21
2022-10-19T21:02:35.502Z,13.22
2022-10-19T21:05:38.417Z,13.18
2022-10-19T21:08:40.772Z,13.10
2022-10-19T21:11:44.304Z,13.11
2022-10-19T21:14:46.578Z,12.92
2022-10-19T21:17:48.846Z,12.98
2022-10-19T21:20:51.141Z,12.94
2022-10-19T21:23:55.945Z,13.02
2022-10-19T21:27:00.956Z,12.97
2022-10-19T21:30:04.130Z,12.94
2022-10-19T21:33:06.331Z,12.88
2022-10-19T21:36:09.870Z,12.91
2022-10-19T21:39:12.296Z,12.73
2022-10-19T21:42:14.562Z,12.72
2022-10-19T21:45:29.917Z,12.69
2022-10-19T21:48:33.844Z,12.79
2022-10-19T21:51:58.505Z,12.71
2022-10-19T21:55:00.714Z,12.68
2022-10-19T21:58:03.951Z,12.57
2022-10-19T22:01:07.200Z,12.54
2022-10-19T22:04:14.710Z,12.61
2022-10-19T22:07:17.044Z,12.56
2022-10-19T22:10:19.429Z,12.50
2022-10-19T22:13:21.817Z,12.50
2022-10-19T22:16:25.293Z,12.51
2022-10-19T22:19:27.681Z,12.36
2022-10-19T22:22:30.081Z,12.29
2022-10-19T22:25:35.867Z,12.28
2022-10-19T22:28:38.144Z,12.31
2022-10-19T22:31:40.616Z,12.35
2022-10-19T22:34:42.873Z,12.38
2022-10-19T22:37:45.155Z,12.36
2022-10-19T22:40:47.469Z,12.34
2022-10-19T22:43:49.809Z,12.35
2022-10-19T22:46:52.148Z,12.21
2022-10-19T22:49:54.420Z,12.19
2022-10-19T22:52:56.784Z,12.21
2022-10-19T22:55:59.198Z,12.20
2022-10-19T22:59:02.897Z,12.18
2022-10-19T23:02:05.258Z,12.07
2022-10-19T23:05:08.045Z,12.02
2022-10-19T23:08:10.379Z,11.94
2022-10-19T23:11:12.734Z,11.91
2022-10-19T23:14:15.597Z,11.81
2022-10-19T23:17:17.959Z,11.81
2022-10-19T23:20:20.212Z,11.80
2022-10-19T23:23:23.253Z,11.78
2022-10-19T23:26:25.566Z,11.75
2022-10-19T23:29:27.878Z,11.75
2022-10-19T23:32:30.247Z,11.72
2022-10-19T23:35:32.607Z,11.70
2022-10-19T23:38:36.001Z,11.68
2022-10-19T23:41:38.315Z,11.62
2022-10-19T23:44:40.648Z,11.56
2022-10-19T23:47:43.021Z,11.55
2022-10-19T23:50:45.345Z,11.58
2022-10-19T23:53:49.582Z,11.56
2022-10-19T23:56:51.984Z,11.49
2022-10-19T23:59:54.243Z,11.52
